Kezdőlap
METAR-TAF:

METAR-TAF

Repülőterek :

Syracuse Hancock International Airport

Syracuse, New York, Amerikai Egyesült Államok

földrajzi szélesség: 43-06-33N, földrajzi hosszúság: 076-06-12W, magasság: 128 m

Jelenlegi meteorológiai megfigyelések

A jelentés 59 perccel ezelõtt készült, 04:54 UTC
Keleti szél 4 kt
Hőmérséklet 22°C
Páratartalom 83%
Légköri nyomás 1014 hPa
Látótávolság: 16.1 km
Derült ég

METAR: KSYR 090454Z 10004KT 10SM CLR 22/19 A2994 RMK AO2 SLP132 T02220194 403330222

Idő: 01:53 (05:53 UTC)

Előrejelzés

A jelentés 13 perccel ezelõtt készült, 05:40 UTC
Az előrejelzés 09-én 06 óra UTC és 10-én 06 óra UTC között érvényes
Kelet-délkeleti szél 4 kt
Látótávolság: 10 km
Kevés felhő 5000 lábon

TAF: KSYR 090540Z 0906/1006 12004KT P6SM FEW050

Meteorológiai megfigyelések és előrejelzések több, mint 4000 repülőtéren (METAR és TAF jelentéseket).

A térképen piros és sárga pontok jelzik az elérhető meteorológiai állomásokat.

Mozgassa az egeret a pont fölött, hogy megjelenjen az állomás neve.

Azután kattintson az időjárási megfigyelések és előrejelzések megtekintéséhez.

A térkép megváltoztatása: kattintson a fekete keresztel jelölt zöld gombra ráközelítéshez, a vonallal jelölt zöld gombra távolításhoz, vagy a zöld nyilakra a szomszédos térképek eléréséhez.


METAR-TAF: